sensor_id;sensor_type;location;lat;lon;timestamp;P1;durP1;ratioP1;P2;durP2;ratioP2
8048;SDS011;20935;42.660;23.342;2022-08-07T00:00:39;9.00;;;8.10;;
8048;SDS011;20935;42.660;23.342;2022-08-07T00:03:04;9.33;;;8.30;;
8048;SDS011;20935;42.660;23.342;2022-08-07T00:05:29;11.47;;;8.80;;
8048;SDS011;20935;42.660;23.342;2022-08-07T00:07:55;10.43;;;9.20;;
8048;SDS011;20935;42.660;23.342;2022-08-07T00:10:20;11.83;;;8.57;;
8048;SDS011;20935;42.660;23.342;2022-08-07T00:12:47;9.60;;;8.67;;
8048;SDS011;20935;42.660;23.342;2022-08-07T00:15:12;9.83;;;8.90;;
8048;SDS011;20935;42.660;23.342;2022-08-07T00:17:37;9.30;;;8.47;;
8048;SDS011;20935;42.660;23.342;2022-08-07T00:20:03;9.30;;;8.50;;
8048;SDS011;20935;42.660;23.342;2022-08-07T00:22:29;10.43;;;8.80;;
8048;SDS011;20935;42.660;23.342;2022-08-07T00:24:54;9.70;;;8.90;;
8048;SDS011;20935;42.660;23.342;2022-08-07T00:27:19;9.37;;;8.47;;
8048;SDS011;20935;42.660;23.342;2022-08-07T00:29:45;10.70;;;8.47;;
8048;SDS011;20935;42.660;23.342;2022-08-07T00:32:10;8.97;;;8.17;;
8048;SDS011;20935;42.660;23.342;2022-08-07T00:34:37;9.57;;;8.60;;
8048;SDS011;20935;42.660;23.342;2022-08-07T00:37:03;9.17;;;8.27;;
8048;SDS011;20935;42.660;23.342;2022-08-07T00:39:28;9.50;;;8.50;;
8048;SDS011;20935;42.660;23.342;2022-08-07T00:41:55;9.50;;;8.63;;
8048;SDS011;20935;42.660;23.342;2022-08-07T00:44:21;11.70;;;8.57;;
8048;SDS011;20935;42.660;23.342;2022-08-07T00:46:47;9.43;;;8.50;;
8048;SDS011;20935;42.660;23.342;2022-08-07T00:49:12;9.97;;;9.07;;
8048;SDS011;20935;42.660;23.342;2022-08-07T00:51:38;9.33;;;8.37;;
8048;SDS011;20935;42.660;23.342;2022-08-07T00:54:03;9.23;;;8.33;;
8048;SDS011;20935;42.660;23.342;2022-08-07T00:56:28;9.53;;;8.53;;
8048;SDS011;20935;42.660;23.342;2022-08-07T00:58:54;9.77;;;8.87;;
8048;SDS011;20935;42.660;23.342;2022-08-07T01:01:19;9.00;;;8.10;;
8048;SDS011;20935;42.660;23.342;2022-08-07T01:03:45;12.03;;;8.67;;
8048;SDS011;20935;42.660;23.342;2022-08-07T01:06:11;10.13;;;9.10;;
8048;SDS011;20935;42.660;23.342;2022-08-07T01:08:36;10.63;;;9.00;;
8048;SDS011;20935;42.660;23.342;2022-08-07T01:11:01;9.37;;;8.23;;
8048;SDS011;20935;42.660;23.342;2022-08-07T01:13:27;9.60;;;8.53;;
8048;SDS011;20935;42.660;23.342;2022-08-07T01:15:52;9.63;;;8.47;;
8048;SDS011;20935;42.660;23.342;2022-08-07T01:18:18;10.10;;;9.20;;
8048;SDS011;20935;42.660;23.342;2022-08-07T01:23:19;9.47;;;8.57;;
8048;SDS011;20935;42.660;23.342;2022-08-07T01:25:45;10.03;;;9.13;;
8048;SDS011;20935;42.660;23.342;2022-08-07T01:28:10;12.80;;;9.03;;
8048;SDS011;20935;42.660;23.342;2022-08-07T01:30:35;11.37;;;9.60;;
8048;SDS011;20935;42.660;23.342;2022-08-07T01:33:01;10.10;;;9.23;;
8048;SDS011;20935;42.660;23.342;2022-08-07T01:35:26;12.30;;;8.87;;
8048;SDS011;20935;42.660;23.342;2022-08-07T01:37:52;9.60;;;8.80;;
8048;SDS011;20935;42.660;23.342;2022-08-07T01:40:18;9.57;;;8.77;;
8048;SDS011;20935;42.660;23.342;2022-08-07T01:42:44;10.67;;;8.97;;
8048;SDS011;20935;42.660;23.342;2022-08-07T01:45:10;11.00;;;8.73;;
8048;SDS011;20935;42.660;23.342;2022-08-07T01:47:35;9.40;;;8.50;;
8048;SDS011;20935;42.660;23.342;2022-08-07T01:50:01;9.37;;;8.57;;
8048;SDS011;20935;42.660;23.342;2022-08-07T01:52:26;9.77;;;8.77;;
8048;SDS011;20935;42.660;23.342;2022-08-07T01:54:52;13.23;;;9.03;;
8048;SDS011;20935;42.660;23.342;2022-08-07T01:57:22;9.57;;;8.37;;
8048;SDS011;20935;42.660;23.342;2022-08-07T01:59:53;9.67;;;8.20;;
8048;SDS011;20935;42.660;23.342;2022-08-07T02:02:22;12.63;;;9.30;;
8048;SDS011;20935;42.660;23.342;2022-08-07T02:04:52;8.53;;;7.63;;
8048;SDS011;20935;42.660;23.342;2022-08-07T02:07:19;8.63;;;7.90;;
8048;SDS011;20935;42.660;23.342;2022-08-07T02:09:46;8.53;;;7.73;;
8048;SDS011;20935;42.660;23.342;2022-08-07T02:12:13;9.83;;;8.30;;
8048;SDS011;20935;42.660;23.342;2022-08-07T02:14:44;8.60;;;7.53;;
8048;SDS011;20935;42.660;23.342;2022-08-07T02:17:11;8.93;;;8.07;;
8048;SDS011;20935;42.660;23.342;2022-08-07T02:19:37;9.07;;;8.00;;
8048;SDS011;20935;42.660;23.342;2022-08-07T02:22:05;8.67;;;7.97;;
8048;SDS011;20935;42.660;23.342;2022-08-07T02:24:30;10.67;;;8.30;;
8048;SDS011;20935;42.660;23.342;2022-08-07T02:26:59;9.17;;;8.23;;
8048;SDS011;20935;42.660;23.342;2022-08-07T02:29:25;9.57;;;7.97;;
8048;SDS011;20935;42.660;23.342;2022-08-07T02:31:51;10.20;;;8.80;;
8048;SDS011;20935;42.660;23.342;2022-08-07T02:34:16;10.30;;;8.50;;
8048;SDS011;20935;42.660;23.342;2022-08-07T02:36:42;9.70;;;8.80;;
8048;SDS011;20935;42.660;23.342;2022-08-07T02:39:08;9.50;;;8.63;;
8048;SDS011;20935;42.660;23.342;2022-08-07T02:41:34;10.73;;;9.10;;
8048;SDS011;20935;42.660;23.342;2022-08-07T02:44:00;9.17;;;8.30;;
8048;SDS011;20935;42.660;23.342;2022-08-07T02:46:26;10.97;;;8.50;;
8048;SDS011;20935;42.660;23.342;2022-08-07T02:48:52;9.73;;;8.67;;
8048;SDS011;20935;42.660;23.342;2022-08-07T02:51:17;11.37;;;8.60;;
8048;SDS011;20935;42.660;23.342;2022-08-07T02:53:43;9.93;;;8.93;;
8048;SDS011;20935;42.660;23.342;2022-08-07T02:56:11;9.13;;;8.17;;
8048;SDS011;20935;42.660;23.342;2022-08-07T02:58:37;9.13;;;8.07;;
8048;SDS011;20935;42.660;23.342;2022-08-07T03:01:03;9.53;;;8.63;;
8048;SDS011;20935;42.660;23.342;2022-08-07T03:03:30;8.80;;;8.00;;
8048;SDS011;20935;42.660;23.342;2022-08-07T03:05:55;9.30;;;8.40;;
8048;SDS011;20935;42.660;23.342;2022-08-07T03:08:21;9.70;;;8.80;;
8048;SDS011;20935;42.660;23.342;2022-08-07T03:10:47;9.93;;;9.00;;
8048;SDS011;20935;42.660;23.342;2022-08-07T03:13:16;9.80;;;8.80;;
8048;SDS011;20935;42.660;23.342;2022-08-07T03:15:41;10.60;;;9.13;;
8048;SDS011;20935;42.660;23.342;2022-08-07T03:18:07;9.60;;;8.60;;
8048;SDS011;20935;42.660;23.342;2022-08-07T03:20:33;13.10;;;9.57;;
8048;SDS011;20935;42.660;23.342;2022-08-07T03:23:01;11.33;;;9.47;;
8048;SDS011;20935;42.660;23.342;2022-08-07T03:25:27;11.83;;;10.00;;
8048;SDS011;20935;42.660;23.342;2022-08-07T03:27:53;10.67;;;9.63;;
8048;SDS011;20935;42.660;23.342;2022-08-07T03:30:19;10.87;;;9.73;;
8048;SDS011;20935;42.660;23.342;2022-08-07T03:32:46;11.17;;;9.97;;
8048;SDS011;20935;42.660;23.342;2022-08-07T03:35:12;10.20;;;9.20;;
8048;SDS011;20935;42.660;23.342;2022-08-07T03:37:39;11.00;;;9.90;;
8048;SDS011;20935;42.660;23.342;2022-08-07T03:40:05;13.27;;;10.70;;
8048;SDS011;20935;42.660;23.342;2022-08-07T03:42:32;13.70;;;9.80;;
8048;SDS011;20935;42.660;23.342;2022-08-07T03:44:57;11.30;;;10.10;;
8048;SDS011;20935;42.660;23.342;2022-08-07T03:47:24;12.43;;;10.13;;
8048;SDS011;20935;42.660;23.342;2022-08-07T03:49:49;10.40;;;9.50;;
8048;SDS011;20935;42.660;23.342;2022-08-07T03:52:15;11.43;;;9.87;;
8048;SDS011;20935;42.660;23.342;2022-08-07T03:54:41;10.97;;;9.97;;
8048;SDS011;20935;42.660;23.342;2022-08-07T03:57:06;11.03;;;10.03;;
8048;SDS011;20935;42.660;23.342;2022-08-07T03:59:32;11.67;;;10.03;;
8048;SDS011;20935;42.660;23.342;2022-08-07T04:01:57;10.63;;;9.60;;
8048;SDS011;20935;42.660;23.342;2022-08-07T04:04:23;10.87;;;9.87;;
8048;SDS011;20935;42.660;23.342;2022-08-07T04:06:49;10.70;;;9.80;;
8048;SDS011;20935;42.660;23.342;2022-08-07T04:09:15;10.80;;;9.73;;
8048;SDS011;20935;42.660;23.342;2022-08-07T04:11:40;10.27;;;9.33;;
8048;SDS011;20935;42.660;23.342;2022-08-07T04:14:06;10.50;;;9.47;;
8048;SDS011;20935;42.660;23.342;2022-08-07T04:16:31;10.10;;;9.10;;
8048;SDS011;20935;42.660;23.342;2022-08-07T04:18:57;10.63;;;9.33;;
8048;SDS011;20935;42.660;23.342;2022-08-07T04:21:23;11.33;;;10.00;;
8048;SDS011;20935;42.660;23.342;2022-08-07T04:23:48;10.40;;;9.50;;
8048;SDS011;20935;42.660;23.342;2022-08-07T04:26:14;11.07;;;10.03;;
8048;SDS011;20935;42.660;23.342;2022-08-07T04:28:40;9.53;;;8.73;;
8048;SDS011;20935;42.660;23.342;2022-08-07T04:31:06;9.93;;;9.03;;
8048;SDS011;20935;42.660;23.342;2022-08-07T04:33:31;10.13;;;9.13;;
8048;SDS011;20935;42.660;23.342;2022-08-07T04:35:57;10.20;;;9.30;;
8048;SDS011;20935;42.660;23.342;2022-08-07T04:38:23;9.33;;;8.53;;
8048;SDS011;20935;42.660;23.342;2022-08-07T04:40:49;11.00;;;9.30;;
8048;SDS011;20935;42.660;23.342;2022-08-07T04:43:14;9.77;;;8.80;;
8048;SDS011;20935;42.660;23.342;2022-08-07T04:46:00;9.80;;;8.83;;
8048;SDS011;20935;42.660;23.342;2022-08-07T04:50:59;10.03;;;9.13;;
8048;SDS011;20935;42.660;23.342;2022-08-07T04:53:27;9.93;;;9.10;;
8048;SDS011;20935;42.660;23.342;2022-08-07T04:55:58;11.00;;;9.80;;
8048;SDS011;20935;42.660;23.342;2022-08-07T05:00:56;10.13;;;9.13;;
8048;SDS011;20935;42.660;23.342;2022-08-07T05:03:24;9.70;;;8.90;;
8048;SDS011;20935;42.660;23.342;2022-08-07T05:05:58;9.90;;;8.20;;
8048;SDS011;20935;42.660;23.342;2022-08-07T05:11:08;9.63;;;8.73;;
8048;SDS011;20935;42.660;23.342;2022-08-07T05:13:35;9.60;;;8.80;;
8048;SDS011;20935;42.660;23.342;2022-08-07T05:16:03;9.73;;;8.83;;
8048;SDS011;20935;42.660;23.342;2022-08-07T05:18:31;9.63;;;8.73;;
8048;SDS011;20935;42.660;23.342;2022-08-07T05:20:59;9.53;;;8.73;;
8048;SDS011;20935;42.660;23.342;2022-08-07T05:23:31;9.67;;;8.77;;
8048;SDS011;20935;42.660;23.342;2022-08-07T05:25:57;9.37;;;8.57;;
8048;SDS011;20935;42.660;23.342;2022-08-07T05:28:23;10.40;;;9.50;;
8048;SDS011;20935;42.660;23.342;2022-08-07T05:30:50;9.20;;;8.33;;
8048;SDS011;20935;42.660;23.342;2022-08-07T05:33:16;11.77;;;9.10;;
8048;SDS011;20935;42.660;23.342;2022-08-07T05:35:41;9.70;;;8.90;;
8048;SDS011;20935;42.660;23.342;2022-08-07T05:38:07;11.17;;;10.07;;
8048;SDS011;20935;42.660;23.342;2022-08-07T05:40:35;9.63;;;8.83;;
8048;SDS011;20935;42.660;23.342;2022-08-07T05:43:01;9.60;;;8.67;;
8048;SDS011;20935;42.660;23.342;2022-08-07T05:45:26;10.13;;;8.53;;
8048;SDS011;20935;42.660;23.342;2022-08-07T05:47:52;8.80;;;8.00;;
8048;SDS011;20935;42.660;23.342;2022-08-07T05:50:18;9.70;;;8.80;;
8048;SDS011;20935;42.660;23.342;2022-08-07T05:52:44;9.07;;;8.17;;
8048;SDS011;20935;42.660;23.342;2022-08-07T05:55:09;7.67;;;7.00;;
8048;SDS011;20935;42.660;23.342;2022-08-07T05:57:35;8.57;;;7.87;;
8048;SDS011;20935;42.660;23.342;2022-08-07T06:00:02;9.23;;;8.43;;
8048;SDS011;20935;42.660;23.342;2022-08-07T06:02:28;9.30;;;8.37;;
8048;SDS011;20935;42.660;23.342;2022-08-07T06:04:56;8.73;;;7.77;;
8048;SDS011;20935;42.660;23.342;2022-08-07T06:07:21;7.80;;;6.97;;
8048;SDS011;20935;42.660;23.342;2022-08-07T06:09:47;8.50;;;7.70;;
8048;SDS011;20935;42.660;23.342;2022-08-07T06:12:13;8.53;;;7.73;;
8048;SDS011;20935;42.660;23.342;2022-08-07T06:14:38;8.57;;;7.53;;
8048;SDS011;20935;42.660;23.342;2022-08-07T06:17:05;9.70;;;7.73;;
8048;SDS011;20935;42.660;23.342;2022-08-07T06:19:31;8.10;;;7.30;;
8048;SDS011;20935;42.660;23.342;2022-08-07T06:21:56;7.93;;;7.23;;
8048;SDS011;20935;42.660;23.342;2022-08-07T06:24:22;7.47;;;6.80;;
8048;SDS011;20935;42.660;23.342;2022-08-07T06:26:47;8.67;;;6.97;;
8048;SDS011;20935;42.660;23.342;2022-08-07T06:29:12;7.90;;;7.10;;
8048;SDS011;20935;42.660;23.342;2022-08-07T06:31:38;7.60;;;6.83;;
8048;SDS011;20935;42.660;23.342;2022-08-07T06:34:03;8.43;;;7.63;;
8048;SDS011;20935;42.660;23.342;2022-08-07T06:36:28;7.60;;;6.90;;
8048;SDS011;20935;42.660;23.342;2022-08-07T06:38:54;7.43;;;6.83;;
8048;SDS011;20935;42.660;23.342;2022-08-07T06:41:24;7.77;;;7.07;;
8048;SDS011;20935;42.660;23.342;2022-08-07T06:43:50;7.90;;;7.20;;
8048;SDS011;20935;42.660;23.342;2022-08-07T06:46:17;8.77;;;7.37;;
8048;SDS011;20935;42.660;23.342;2022-08-07T06:48:43;8.20;;;7.50;;
8048;SDS011;20935;42.660;23.342;2022-08-07T06:51:09;8.73;;;7.60;;
8048;SDS011;20935;42.660;23.342;2022-08-07T06:53:37;8.43;;;7.63;;
8048;SDS011;20935;42.660;23.342;2022-08-07T06:56:04;8.03;;;7.23;;
8048;SDS011;20935;42.660;23.342;2022-08-07T06:58:29;8.67;;;7.87;;
8048;SDS011;20935;42.660;23.342;2022-08-07T07:00:55;8.47;;;7.67;;
8048;SDS011;20935;42.660;23.342;2022-08-07T07:03:21;7.47;;;6.87;;
8048;SDS011;20935;42.660;23.342;2022-08-07T07:05:46;8.37;;;7.60;;
8048;SDS011;20935;42.660;23.342;2022-08-07T07:08:12;9.23;;;8.27;;
8048;SDS011;20935;42.660;23.342;2022-08-07T07:10:37;8.60;;;7.80;;
8048;SDS011;20935;42.660;23.342;2022-08-07T07:13:05;8.77;;;7.83;;
8048;SDS011;20935;42.660;23.342;2022-08-07T07:15:33;8.23;;;7.53;;
8048;SDS011;20935;42.660;23.342;2022-08-07T07:18:01;9.10;;;8.20;;
8048;SDS011;20935;42.660;23.342;2022-08-07T07:20:32;8.57;;;7.83;;
8048;SDS011;20935;42.660;23.342;2022-08-07T07:22:58;8.17;;;7.47;;
8048;SDS011;20935;42.660;23.342;2022-08-07T07:25:24;8.67;;;7.87;;
8048;SDS011;20935;42.660;23.342;2022-08-07T07:27:57;9.10;;;7.40;;
8048;SDS011;20935;42.660;23.342;2022-08-07T07:30:23;8.93;;;8.07;;
8048;SDS011;20935;42.660;23.342;2022-08-07T07:32:49;8.40;;;7.60;;
8048;SDS011;20935;42.660;23.342;2022-08-07T07:35:16;8.67;;;7.77;;
8048;SDS011;20935;42.660;23.342;2022-08-07T07:37:42;9.30;;;8.10;;
8048;SDS011;20935;42.660;23.342;2022-08-07T07:40:11;8.20;;;7.50;;
8048;SDS011;20935;42.660;23.342;2022-08-07T07:42:37;8.40;;;7.60;;
8048;SDS011;20935;42.660;23.342;2022-08-07T07:45:03;8.47;;;7.67;;
8048;SDS011;20935;42.660;23.342;2022-08-07T07:47:29;8.47;;;7.53;;
8048;SDS011;20935;42.660;23.342;2022-08-07T07:49:55;10.40;;;9.50;;
8048;SDS011;20935;42.660;23.342;2022-08-07T07:52:21;13.23;;;11.83;;
8048;SDS011;20935;42.660;23.342;2022-08-07T07:54:51;14.07;;;12.73;;
8048;SDS011;20935;42.660;23.342;2022-08-07T07:57:17;11.73;;;10.73;;
8048;SDS011;20935;42.660;23.342;2022-08-07T07:59:45;16.10;;;14.60;;
8048;SDS011;20935;42.660;23.342;2022-08-07T08:02:10;14.40;;;13.00;;
8048;SDS011;20935;42.660;23.342;2022-08-07T08:04:38;12.00;;;10.80;;
8048;SDS011;20935;42.660;23.342;2022-08-07T08:07:04;13.23;;;11.83;;
8048;SDS011;20935;42.660;23.342;2022-08-07T08:09:29;11.67;;;10.57;;
8048;SDS011;20935;42.660;23.342;2022-08-07T08:11:56;15.27;;;11.73;;
8048;SDS011;20935;42.660;23.342;2022-08-07T08:14:21;12.40;;;11.10;;
8048;SDS011;20935;42.660;23.342;2022-08-07T08:16:48;12.80;;;11.50;;
8048;SDS011;20935;42.660;23.342;2022-08-07T08:19:14;11.23;;;10.23;;
8048;SDS011;20935;42.660;23.342;2022-08-07T08:21:41;9.37;;;8.57;;
8048;SDS011;20935;42.660;23.342;2022-08-07T08:24:28;9.60;;;8.70;;
8048;SDS011;20935;42.660;23.342;2022-08-07T08:27:37;9.73;;;8.80;;
8048;SDS011;20935;42.660;23.342;2022-08-07T08:30:05;9.47;;;8.57;;
8048;SDS011;20935;42.660;23.342;2022-08-07T08:32:31;9.43;;;8.63;;
8048;SDS011;20935;42.660;23.342;2022-08-07T08:35:04;8.67;;;7.97;;
8048;SDS011;20935;42.660;23.342;2022-08-07T08:37:46;8.97;;;8.27;;
8048;SDS011;20935;42.660;23.342;2022-08-07T08:40:17;9.67;;;8.87;;
8048;SDS011;20935;42.660;23.342;2022-08-07T08:42:51;9.10;;;8.30;;
8048;SDS011;20935;42.660;23.342;2022-08-07T08:45:20;8.93;;;8.13;;
8048;SDS011;20935;42.660;23.342;2022-08-07T08:50:31;10.53;;;8.77;;
8048;SDS011;20935;42.660;23.342;2022-08-07T09:00:24;9.27;;;8.37;;
8048;SDS011;20935;42.660;23.342;2022-08-07T09:02:55;9.13;;;8.33;;
8048;SDS011;20935;42.660;23.342;2022-08-07T09:05:22;9.00;;;8.10;;
8048;SDS011;20935;42.660;23.342;2022-08-07T09:07:52;9.33;;;8.20;;
8048;SDS011;20935;42.660;23.342;2022-08-07T09:10:28;8.67;;;7.70;;
8048;SDS011;20935;42.660;23.342;2022-08-07T09:16:01;9.37;;;8.47;;
8048;SDS011;20935;42.660;23.342;2022-08-07T09:23:45;8.80;;;7.90;;
8048;SDS011;20935;42.660;23.342;2022-08-07T09:26:26;8.17;;;7.47;;
8048;SDS011;20935;42.660;23.342;2022-08-07T09:28:57;8.33;;;7.53;;
8048;SDS011;20935;42.660;23.342;2022-08-07T09:31:42;8.80;;;8.00;;
8048;SDS011;20935;42.660;23.342;2022-08-07T09:34:23;7.80;;;7.13;;
8048;SDS011;20935;42.660;23.342;2022-08-07T09:37:03;8.70;;;7.90;;
8048;SDS011;20935;42.660;23.342;2022-08-07T09:42:08;9.23;;;8.13;;
8048;SDS011;20935;42.660;23.342;2022-08-07T09:44:46;8.60;;;7.73;;
8048;SDS011;20935;42.660;23.342;2022-08-07T09:52:44;7.10;;;6.50;;
8048;SDS011;20935;42.660;23.342;2022-08-07T09:55:28;7.60;;;6.93;;
8048;SDS011;20935;42.660;23.342;2022-08-07T09:58:02;7.83;;;7.03;;
8048;SDS011;20935;42.660;23.342;2022-08-07T10:00:56;7.97;;;7.20;;
8048;SDS011;20935;42.660;23.342;2022-08-07T10:06:12;7.77;;;7.07;;
8048;SDS011;20935;42.660;23.342;2022-08-07T10:11:24;7.43;;;6.73;;
8048;SDS011;20935;42.660;23.342;2022-08-07T10:14:19;7.33;;;6.73;;
8048;SDS011;20935;42.660;23.342;2022-08-07T10:19:16;7.90;;;5.87;;
8048;SDS011;20935;42.660;23.342;2022-08-07T10:21:55;6.80;;;5.90;;
8048;SDS011;20935;42.660;23.342;2022-08-07T10:40:15;9.27;;;6.17;;
8048;SDS011;20935;42.660;23.342;2022-08-07T10:50:36;14.37;;;6.73;;
8048;SDS011;20935;42.660;23.342;2022-08-07T10:53:08;6.70;;;6.10;;
8048;SDS011;20935;42.660;23.342;2022-08-07T10:55:50;6.83;;;6.23;;
8048;SDS011;20935;42.660;23.342;2022-08-07T11:03:41;6.90;;;6.30;;
8048;SDS011;20935;42.660;23.342;2022-08-07T11:06:12;7.07;;;6.00;;
8048;SDS011;20935;42.660;23.342;2022-08-07T11:08:42;7.15;;;6.55;;
8048;SDS011;20935;42.660;23.342;2022-08-07T11:13:57;8.43;;;7.63;;
8048;SDS011;20935;42.660;23.342;2022-08-07T11:19:02;7.65;;;6.97;;
8048;SDS011;20935;42.660;23.342;2022-08-07T11:24:03;7.10;;;6.50;;
8048;SDS011;20935;42.660;23.342;2022-08-07T11:26:34;8.10;;;6.80;;
8048;SDS011;20935;42.660;23.342;2022-08-07T11:31:50;7.45;;;6.78;;
8048;SDS011;20935;42.660;23.342;2022-08-07T11:34:28;7.25;;;6.55;;
8048;SDS011;20935;42.660;23.342;2022-08-07T11:36:57;7.78;;;7.15;;
8048;SDS011;20935;42.660;23.342;2022-08-07T11:44:31;7.00;;;6.30;;
8048;SDS011;20935;42.660;23.342;2022-08-07T11:49:41;8.27;;;7.40;;
8048;SDS011;20935;42.660;23.342;2022-08-07T11:57:32;8.67;;;7.60;;
8048;SDS011;20935;42.660;23.342;2022-08-07T12:00:13;7.50;;;6.73;;
8048;SDS011;20935;42.660;23.342;2022-08-07T12:02:47;9.13;;;7.47;;
8048;SDS011;20935;42.660;23.342;2022-08-07T12:13:10;8.10;;;7.32;;
8048;SDS011;20935;42.660;23.342;2022-08-07T12:15:38;7.57;;;6.85;;
8048;SDS011;20935;42.660;23.342;2022-08-07T12:18:11;8.10;;;6.55;;
8048;SDS011;20935;42.660;23.342;2022-08-07T12:20:43;6.85;;;6.32;;
8048;SDS011;20935;42.660;23.342;2022-08-07T12:28:22;7.15;;;6.60;;
8048;SDS011;20935;42.660;23.342;2022-08-07T12:30:50;7.65;;;7.05;;
8048;SDS011;20935;42.660;23.342;2022-08-07T12:33:18;7.85;;;7.03;;
8048;SDS011;20935;42.660;23.342;2022-08-07T12:35:46;7.28;;;6.68;;
8048;SDS011;20935;42.660;23.342;2022-08-07T12:38:12;7.57;;;6.88;;
8048;SDS011;20935;42.660;23.342;2022-08-07T12:40:39;8.63;;;6.55;;
8048;SDS011;20935;42.660;23.342;2022-08-07T12:43:06;7.28;;;6.68;;
8048;SDS011;20935;42.660;23.342;2022-08-07T12:45:46;6.85;;;6.22;;
8048;SDS011;20935;42.660;23.342;2022-08-07T12:48:17;6.77;;;6.07;;
8048;SDS011;20935;42.660;23.342;2022-08-07T12:53:50;6.27;;;5.77;;
8048;SDS011;20935;42.660;23.342;2022-08-07T12:58:54;7.00;;;6.30;;
8048;SDS011;20935;42.660;23.342;2022-08-07T13:04:00;7.67;;;6.43;;
8048;SDS011;20935;42.660;23.342;2022-08-07T13:10:03;7.93;;;6.60;;
8048;SDS011;20935;42.660;23.342;2022-08-07T13:14:58;7.20;;;6.60;;
8048;SDS011;20935;42.660;23.342;2022-08-07T13:20:11;7.35;;;6.68;;
8048;SDS011;20935;42.660;23.342;2022-08-07T13:22:40;6.78;;;6.13;;
8048;SDS011;20935;42.660;23.342;2022-08-07T13:25:10;7.15;;;6.45;;
8048;SDS011;20935;42.660;23.342;2022-08-07T13:27:49;9.73;;;6.25;;
8048;SDS011;20935;42.660;23.342;2022-08-07T13:30:15;7.00;;;6.30;;
8048;SDS011;20935;42.660;23.342;2022-08-07T13:32:47;6.72;;;6.00;;
8048;SDS011;20935;42.660;23.342;2022-08-07T13:35:30;6.75;;;5.63;;
8048;SDS011;20935;42.660;23.342;2022-08-07T13:38:23;7.30;;;6.70;;
8048;SDS011;20935;42.660;23.342;2022-08-07T13:43:17;6.93;;;6.32;;
8048;SDS011;20935;42.660;23.342;2022-08-07T13:45:44;9.43;;;6.43;;
8048;SDS011;20935;42.660;23.342;2022-08-07T13:48:10;6.60;;;6.10;;
8048;SDS011;20935;42.660;23.342;2022-08-07T13:50:39;6.70;;;6.10;;
8048;SDS011;20935;42.660;23.342;2022-08-07T13:53:05;7.47;;;6.88;;
8048;SDS011;20935;42.660;23.342;2022-08-07T13:55:31;6.88;;;6.28;;
8048;SDS011;20935;42.660;23.342;2022-08-07T13:58:07;6.35;;;5.85;;
8048;SDS011;20935;42.660;23.342;2022-08-07T14:00:52;7.30;;;6.57;;
8048;SDS011;20935;42.660;23.342;2022-08-07T14:03:21;7.97;;;7.18;;
8048;SDS011;20935;42.660;23.342;2022-08-07T14:05:51;7.68;;;7.05;;
8048;SDS011;20935;42.660;23.342;2022-08-07T14:08:19;7.43;;;6.50;;
8048;SDS011;20935;42.660;23.342;2022-08-07T14:10:45;7.85;;;6.90;;
8048;SDS011;20935;42.660;23.342;2022-08-07T14:13:15;7.30;;;6.60;;
8048;SDS011;20935;42.660;23.342;2022-08-07T14:15:43;8.38;;;6.75;;
8048;SDS011;20935;42.660;23.342;2022-08-07T14:19:14;8.48;;;7.55;;
8048;SDS011;20935;42.660;23.342;2022-08-07T14:21:11;7.27;;;6.63;;
8048;SDS011;20935;42.660;23.342;2022-08-07T14:23:47;6.90;;;6.30;;
8048;SDS011;20935;42.660;23.342;2022-08-07T14:26:14;8.17;;;7.00;;
8048;SDS011;20935;42.660;23.342;2022-08-07T14:28:42;7.10;;;6.40;;
8048;SDS011;20935;42.660;23.342;2022-08-07T14:31:08;7.07;;;6.38;;
8048;SDS011;20935;42.660;23.342;2022-08-07T14:33:34;6.83;;;6.07;;
8048;SDS011;20935;42.660;23.342;2022-08-07T14:36:00;7.20;;;6.63;;
8048;SDS011;20935;42.660;23.342;2022-08-07T14:38:27;8.15;;;7.00;;
8048;SDS011;20935;42.660;23.342;2022-08-07T14:40:54;8.07;;;7.10;;
8048;SDS011;20935;42.660;23.342;2022-08-07T14:43:20;7.72;;;7.03;;
8048;SDS011;20935;42.660;23.342;2022-08-07T14:48:12;7.87;;;7.10;;
8048;SDS011;20935;42.660;23.342;2022-08-07T14:50:47;8.07;;;7.30;;
8048;SDS011;20935;42.660;23.342;2022-08-07T14:53:14;8.70;;;7.70;;
8048;SDS011;20935;42.660;23.342;2022-08-07T14:55:40;8.73;;;7.88;;
8048;SDS011;20935;42.660;23.342;2022-08-07T14:58:08;8.40;;;7.67;;
8048;SDS011;20935;42.660;23.342;2022-08-07T15:00:34;8.07;;;7.35;;
8048;SDS011;20935;42.660;23.342;2022-08-07T15:03:04;7.85;;;7.25;;
8048;SDS011;20935;42.660;23.342;2022-08-07T15:05:30;8.15;;;6.85;;
8048;SDS011;20935;42.660;23.342;2022-08-07T15:07:56;7.70;;;7.03;;
8048;SDS011;20935;42.660;23.342;2022-08-07T15:10:22;7.75;;;7.05;;
8048;SDS011;20935;42.660;23.342;2022-08-07T15:12:48;8.23;;;7.22;;
8048;SDS011;20935;42.660;23.342;2022-08-07T15:15:15;9.38;;;7.13;;
8048;SDS011;20935;42.660;23.342;2022-08-07T15:17:51;8.60;;;7.05;;
8048;SDS011;20935;42.660;23.342;2022-08-07T15:20:17;7.88;;;7.07;;
8048;SDS011;20935;42.660;23.342;2022-08-07T15:22:49;7.80;;;6.93;;
8048;SDS011;20935;42.660;23.342;2022-08-07T15:25:17;7.22;;;6.50;;
8048;SDS011;20935;42.660;23.342;2022-08-07T15:27:44;9.13;;;7.18;;
8048;SDS011;20935;42.660;23.342;2022-08-07T15:30:12;7.70;;;7.00;;
8048;SDS011;20935;42.660;23.342;2022-08-07T15:32:41;8.18;;;7.40;;
8048;SDS011;20935;42.660;23.342;2022-08-07T15:35:17;7.90;;;7.13;;
8048;SDS011;20935;42.660;23.342;2022-08-07T15:37:47;6.72;;;6.13;;
8048;SDS011;20935;42.660;23.342;2022-08-07T15:40:14;7.32;;;6.63;;
8048;SDS011;20935;42.660;23.342;2022-08-07T15:45:06;8.23;;;7.53;;
8048;SDS011;20935;42.660;23.342;2022-08-07T15:47:36;7.32;;;6.68;;
8048;SDS011;20935;42.660;23.342;2022-08-07T15:50:05;7.75;;;7.00;;
8048;SDS011;20935;42.660;23.342;2022-08-07T15:52:33;8.20;;;7.28;;
8048;SDS011;20935;42.660;23.342;2022-08-07T15:54:59;7.70;;;7.00;;
8048;SDS011;20935;42.660;23.342;2022-08-07T15:57:26;7.90;;;7.20;;
8048;SDS011;20935;42.660;23.342;2022-08-07T15:59:53;7.32;;;6.65;;
8048;SDS011;20935;42.660;23.342;2022-08-07T16:02:23;8.40;;;7.60;;
8048;SDS011;20935;42.660;23.342;2022-08-07T16:04:53;10.30;;;8.15;;
8048;SDS011;20935;42.660;23.342;2022-08-07T16:07:19;9.95;;;8.00;;
8048;SDS011;20935;42.660;23.342;2022-08-07T16:09:49;8.13;;;7.43;;
8048;SDS011;20935;42.660;23.342;2022-08-07T16:27:46;8.38;;;7.55;;
8048;SDS011;20935;42.660;23.342;2022-08-07T16:30:16;9.10;;;7.63;;
8048;SDS011;20935;42.660;23.342;2022-08-07T16:35:12;7.40;;;6.80;;
8048;SDS011;20935;42.660;23.342;2022-08-07T16:43:02;11.48;;;7.70;;
8048;SDS011;20935;42.660;23.342;2022-08-07T16:48:20;8.88;;;8.00;;
8048;SDS011;20935;42.660;23.342;2022-08-07T16:51:07;9.02;;;8.15;;
8048;SDS011;20935;42.660;23.342;2022-08-07T16:59:02;8.43;;;7.63;;
8048;SDS011;20935;42.660;23.342;2022-08-07T17:01:55;8.03;;;7.33;;
8048;SDS011;20935;42.660;23.342;2022-08-07T17:06:55;8.33;;;7.63;;
8048;SDS011;20935;42.660;23.342;2022-08-07T17:17:03;10.10;;;9.20;;
8048;SDS011;20935;42.660;23.342;2022-08-07T17:19:34;9.50;;;8.13;;
8048;SDS011;20935;42.660;23.342;2022-08-07T17:22:24;8.83;;;8.13;;
8048;SDS011;20935;42.660;23.342;2022-08-07T17:34:54;6.93;;;6.27;;
8048;SDS011;20935;42.660;23.342;2022-08-07T17:37:22;6.93;;;6.37;;
8048;SDS011;20935;42.660;23.342;2022-08-07T17:40:01;7.50;;;6.47;;
8048;SDS011;20935;42.660;23.342;2022-08-07T17:44:59;6.97;;;6.37;;
8048;SDS011;20935;42.660;23.342;2022-08-07T17:47:33;6.63;;;6.03;;
8048;SDS011;20935;42.660;23.342;2022-08-07T17:50:00;7.23;;;6.53;;
8048;SDS011;20935;42.660;23.342;2022-08-07T17:52:34;7.50;;;6.80;;
8048;SDS011;20935;42.660;23.342;2022-08-07T17:55:02;7.83;;;6.80;;
8048;SDS011;20935;42.660;23.342;2022-08-07T18:00:06;8.97;;;8.10;;
8048;SDS011;20935;42.660;23.342;2022-08-07T18:05:03;9.23;;;8.40;;